Time;durP1;ratioP1;P1;durP2;ratioP2;P2;SDS_P1;SDS_P2;PMS_P1;PMS_P2;Temp;Humidity;BMP_temperature;BMP_pressure;BME280_temperature;BME280_humidity;BME280_pressure;Samples;Min_cycle;Max_cycle;Signal;HPM_P1;HPM_P2
2023/12/31 00:00:16;;;;;;;4.53;1.80;;;;;;;9.08;100.00;100348.91;5012707;28;20034;-84
2023/12/31 00:02:41;;;;;;;3.00;1.75;;;;;;;9.28;100.00;100360.50;5013599;28;20030;-84
2023/12/31 00:05:06;;;;;;;3.17;1.63;;;;;;;9.33;100.00;100368.44;5013809;28;20073;-83
2023/12/31 00:07:33;;;;;;;4.45;1.90;;;;;;;9.24;100.00;100329.72;5012359;28;20040;-84
2023/12/31 00:09:58;;;;;;;1.95;1.50;;;;;;;9.21;100.00;100327.94;5012484;28;20600;-83
2023/12/31 00:12:24;;;;;;;3.15;1.65;;;;;;;9.20;100.00;100312.09;5013663;28;20033;-83
2023/12/31 00:14:49;;;;;;;3.63;1.75;;;;;;;9.31;100.00;100325.38;5012455;28;20125;-83
2023/12/31 00:17:15;;;;;;;4.30;1.95;;;;;;;9.26;100.00;100317.44;5013482;28;20478;-85
2023/12/31 00:19:40;;;;;;;4.90;1.60;;;;;;;9.22;100.00;100303.34;5013072;28;20046;-83
2023/12/31 00:22:07;;;;;;;4.90;1.80;;;;;;;9.23;100.00;100307.75;5012078;28;20081;-83
2023/12/31 00:24:32;;;;;;;2.97;1.80;;;;;;;9.27;100.00;100301.63;5011952;28;20390;-82
2023/12/31 00:26:58;;;;;;;2.65;1.60;;;;;;;8.89;100.00;100232.81;5013208;28;20034;-83
2023/12/31 00:29:23;;;;;;;3.25;1.90;;;;;;;9.24;100.00;100285.78;5013084;28;20046;-83
2023/12/31 00:31:49;;;;;;;4.47;1.70;;;;;;;9.22;100.00;100287.53;5013482;28;20029;-83
2023/12/31 00:34:15;;;;;;;2.30;1.52;;;;;;;8.87;100.00;100225.78;5013481;28;20069;-83
2023/12/31 00:36:41;;;;;;;3.03;1.77;;;;;;;9.28;100.00;100291.97;5012172;28;20033;-82
2023/12/31 00:39:06;;;;;;;2.50;1.67;;;;;;;9.30;100.00;100279.69;5015167;28;20046;-83
2023/12/31 00:41:32;;;;;;;3.15;1.70;;;;;;;9.19;100.00;100253.22;5017366;28;20038;-82
2023/12/31 00:43:57;;;;;;;3.58;1.75;;;;;;;9.24;100.00;100255.91;4999900;28;20065;-83
2023/12/31 00:46:23;;;;;;;2.90;1.73;;;;;;;9.19;100.00;100231.28;5017411;28;20380;-83
2023/12/31 00:48:48;;;;;;;3.75;1.70;;;;;;;9.30;100.00;100244.53;5015606;28;20037;-83
2023/12/31 00:51:14;;;;;;;3.20;1.85;;;;;;;9.34;100.00;100251.59;5016979;28;20107;-83
2023/12/31 00:53:40;;;;;;;3.35;1.70;;;;;;;9.20;100.00;100227.75;5016906;28;20046;-83
2023/12/31 00:56:07;;;;;;;3.72;1.95;;;;;;;9.21;100.00;100238.31;5016019;28;20034;-83
2023/12/31 00:58:33;;;;;;;4.93;2.05;;;;;;;9.31;99.44;100241.00;5017059;28;20064;-83
2023/12/31 01:00:58;;;;;;;2.55;1.67;;;;;;;9.13;99.40;100194.34;5016905;28;20474;-84
2023/12/31 01:03:23;;;;;;;6.85;1.80;;;;;;;9.16;99.48;100196.97;5017061;28;20025;-84
2023/12/31 01:05:49;;;;;;;3.28;1.80;;;;;;;9.19;99.43;100211.06;5015778;28;20040;-83
2023/12/31 01:08:14;;;;;;;3.17;1.80;;;;;;;9.27;99.06;100238.34;5016879;28;20088;-83
2023/12/31 01:10:40;;;;;;;4.13;1.80;;;;;;;9.27;99.42;100235.72;5017198;28;20232;-83
2023/12/31 01:13:06;;;;;;;3.65;1.80;;;;;;;9.21;99.25;100219.88;5015544;28;20034;-83
2023/12/31 01:15:32;;;;;;;2.38;1.63;;;;;;;9.26;98.69;100223.41;4999305;28;20034;-83
2023/12/31 01:17:57;;;;;;;3.85;1.65;;;;;;;9.27;98.98;100214.63;5015174;28;20403;-83
2023/12/31 01:20:22;;;;;;;3.38;1.60;;;;;;;9.22;98.64;100203.19;5015392;28;20058;-82
2023/12/31 01:22:48;;;;;;;3.03;1.65;;;;;;;9.21;98.79;100192.63;5015551;28;20038;-83
2023/12/31 01:25:13;;;;;;;3.45;1.70;;;;;;;9.06;98.90;100171.44;5016646;28;20034;-83
2023/12/31 01:27:39;;;;;;;3.05;1.70;;;;;;;9.06;98.39;100163.53;5015250;28;20109;-83
2023/12/31 01:30:05;;;;;;;3.20;1.90;;;;;;;9.15;98.67;100190.81;5015395;28;20034;-83
2023/12/31 01:32:31;;;;;;;3.28;1.73;;;;;;;9.10;98.32;100162.69;5016287;28;20286;-83
2023/12/31 01:35:00;;;;;;;3.13;1.83;;;;;;;9.08;98.27;100175.88;5015265;28;20034;-83
2023/12/31 01:37:26;;;;;;;2.90;1.60;;;;;;;9.11;97.78;100164.44;5016388;28;20041;-83
2023/12/31 01:39:51;;;;;;;3.10;1.90;;;;;;;9.14;97.71;100173.25;5015194;28;20038;-82
2023/12/31 01:42:17;;;;;;;2.50;1.70;;;;;;;9.17;97.87;100165.38;5016404;28;20040;-83
2023/12/31 01:44:42;;;;;;;4.40;1.90;;;;;;;9.18;97.63;100180.31;5016051;28;20057;-83
2023/12/31 01:47:08;;;;;;;2.80;1.90;;;;;;;9.11;97.71;100156.53;5016290;28;20489;-83
2023/12/31 01:49:33;;;;;;;2.92;1.80;;;;;;;9.10;96.80;100147.75;5014768;28;20109;-83
2023/12/31 01:52:00;;;;;;;3.03;1.98;;;;;;;9.19;97.11;100168.88;5016208;28;20471;-83
2023/12/31 01:54:26;;;;;;;3.63;1.80;;;;;;;9.17;97.67;100149.56;5014814;28;20447;-83
2023/12/31 01:56:53;;;;;;;3.28;2.00;;;;;;;9.09;97.74;100129.31;5014820;28;20120;-82
2023/12/31 01:59:19;;;;;;;4.63;1.90;;;;;;;9.10;97.63;100129.31;5015742;28;20041;-83
2023/12/31 02:01:45;;;;;;;5.82;1.83;;;;;;;9.10;97.72;100160.94;5014708;28;20033;-83
2023/12/31 02:04:11;;;;;;;3.67;1.80;;;;;;;8.97;97.85;100111.66;5015632;28;20026;-82
2023/12/31 02:06:36;;;;;;;2.70;1.92;;;;;;;9.08;97.92;100117.88;5014565;28;20041;-82
2023/12/31 02:09:02;;;;;;;3.95;1.70;;;;;;;8.95;97.92;100114.31;4998167;28;20092;-83
2023/12/31 02:11:27;;;;;;;4.32;2.05;;;;;;;8.91;98.12;100101.09;5014562;28;20052;-83
2023/12/31 02:13:53;;;;;;;2.38;1.70;;;;;;;9.02;98.02;100115.19;5014490;28;20363;-83
2023/12/31 02:16:19;;;;;;;3.88;1.90;;;;;;;8.94;98.38;100103.72;5015723;28;20667;-83
2023/12/31 02:18:44;;;;;;;4.65;1.90;;;;;;;8.98;98.17;100106.41;5015136;28;20038;-82
2023/12/31 02:21:13;;;;;;;3.17;1.85;;;;;;;8.94;98.61;100096.72;4997810;28;20040;-83
2023/12/31 02:23:38;;;;;;;3.15;2.00;;;;;;;9.00;98.33;100096.75;5014190;28;20393;-83
2023/12/31 02:26:08;;;;;;;2.90;1.70;;;;;;;8.94;98.06;100086.16;5015220;28;20531;-83
2023/12/31 02:28:33;;;;;;;2.97;1.98;;;;;;;9.00;98.21;100074.81;5015055;28;20080;-82
2023/12/31 02:30:59;;;;;;;2.80;2.03;;;;;;;8.99;98.34;100091.47;5013919;28;20042;-83
2023/12/31 02:33:25;;;;;;;3.97;1.90;;;;;;;8.93;98.01;100073.00;5014083;28;20113;-83
2023/12/31 02:35:50;;;;;;;3.97;1.92;;;;;;;8.84;98.06;100046.63;5014970;28;20431;-83
2023/12/31 02:38:16;;;;;;;5.13;1.88;;;;;;;8.95;98.00;100056.34;5015313;28;20466;-84
2023/12/31 02:40:41;;;;;;;2.63;1.90;;;;;;;8.95;98.79;100045.81;5015492;28;20038;-83
2023/12/31 02:43:06;;;;;;;3.22;1.80;;;;;;;8.95;98.89;100040.53;5013564;28;20038;-83
2023/12/31 02:45:32;;;;;;;3.78;1.95;;;;;;;8.93;98.70;100029.09;5014645;28;20404;-83
2023/12/31 02:47:57;;;;;;;4.00;1.95;;;;;;;8.81;98.97;100001.81;5014809;28;20056;-83
2023/12/31 02:50:22;;;;;;;2.13;1.90;;;;;;;8.92;98.59;100023.81;5014816;28;20030;-83
2023/12/31 02:52:48;;;;;;;2.13;1.85;;;;;;;8.90;99.07;100015.88;5013547;28;20486;-83
2023/12/31 02:55:14;;;;;;;4.07;1.92;;;;;;;8.90;98.65;100010.63;5014715;28;20395;-83
2023/12/31 02:57:39;;;;;;;3.30;1.90;;;;;;;8.68;99.26;99974.53;5013277;28;20151;-83
2023/12/31 03:00:05;;;;;;;2.63;1.70;;;;;;;8.86;99.21;99992.16;5013113;28;20386;-83
2023/12/31 03:02:31;;;;;;;3.10;1.98;;;;;;;8.74;99.44;99964.03;5013720;28;20029;-83
2023/12/31 03:04:56;;;;;;;2.90;1.90;;;;;;;8.87;99.21;99999.22;5014349;28;20032;-83
2023/12/31 03:07:21;;;;;;;3.22;2.20;;;;;;;8.84;99.25;99984.28;5014592;28;20431;-84
2023/12/31 03:09:47;;;;;;;2.88;1.90;;;;;;;8.69;99.52;99957.84;5013210;28;20029;-83
2023/12/31 03:12:12;;;;;;;3.60;1.90;;;;;;;8.84;99.76;99978.13;5014515;28;20422;-82
2023/12/31 03:14:38;;;;;;;4.38;2.03;;;;;;;8.64;99.36;99946.44;5013104;28;20423;-83
2023/12/31 03:17:03;;;;;;;4.55;1.90;;;;;;;8.85;99.64;99977.25;5014334;28;20037;-83
2023/12/31 03:19:35;;;;;;;2.42;1.80;;;;;;;8.81;99.78;99975.47;5029172;28;20088;-83
2023/12/31 03:22:00;;;;;;;4.10;2.17;;;;;;;8.81;99.94;99954.41;5013984;28;20120;-83
2023/12/31 03:24:27;;;;;;;5.30;1.70;;;;;;;8.80;99.91;99940.34;5014208;28;20109;-82
2023/12/31 03:26:52;;;;;;;3.97;1.92;;;;;;;8.73;100.00;99909.59;5014217;28;20057;-83
2023/12/31 03:29:18;;;;;;;3.42;2.10;;;;;;;8.73;100.00;99915.72;5013730;28;20463;-83
2023/12/31 03:31:43;;;;;;;4.45;2.38;;;;;;;8.57;100.00;99873.56;5028871;28;20038;-82
2023/12/31 03:34:08;;;;;;;3.83;2.10;;;;;;;8.74;100.00;99911.38;5014134;28;20442;-83
2023/12/31 03:36:34;;;;;;;3.97;2.20;;;;;;;8.75;100.00;99911.38;5012867;28;20033;-83
2023/12/31 03:39:00;;;;;;;3.30;1.80;;;;;;;8.73;100.00;99888.50;5013905;28;20041;-83
2023/12/31 03:41:25;;;;;;;3.80;2.17;;;;;;;8.83;100.00;99906.13;5013914;28;20117;-83
2023/12/31 03:43:51;;;;;;;2.75;2.10;;;;;;;8.77;100.00;99880.63;5013653;28;20041;-83
2023/12/31 03:46:16;;;;;;;3.05;2.10;;;;;;;8.72;100.00;99868.31;5013837;28;20034;-83
2023/12/31 03:48:42;;;;;;;3.72;2.10;;;;;;;8.75;100.00;99874.47;5013920;28;20076;-83
2023/12/31 03:51:11;;;;;;;4.25;2.20;;;;;;;8.77;100.00;99861.31;5013987;28;20034;-83
2023/12/31 03:53:36;;;;;;;2.65;1.90;;;;;;;8.75;100.00;99850.78;5013651;28;20083;-84
2023/12/31 03:56:02;;;;;;;4.32;2.20;;;;;;;8.72;100.00;99848.13;5013854;28;20480;-84
2023/12/31 03:58:27;;;;;;;3.95;2.08;;;;;;;8.51;100.00;99809.47;5013811;28;20045;-84
2023/12/31 04:00:53;;;;;;;3.63;2.13;;;;;;;8.77;100.00;99842.88;5028557;28;20120;-84
2023/12/31 04:03:18;;;;;;;2.30;1.90;;;;;;;8.74;100.00;99838.50;5012534;28;20096;-84
2023/12/31 04:05:43;;;;;;;2.97;1.90;;;;;;;8.57;100.00;99815.63;5013790;28;20034;-84
2023/12/31 04:08:09;;;;;;;4.25;2.10;;;;;;;8.49;100.00;99784.03;5028638;28;20117;-83
2023/12/31 04:10:34;;;;;;;3.75;2.00;;;;;;;8.69;100.00;99824.44;5013711;28;20026;-82
2023/12/31 04:13:00;;;;;;;3.28;1.70;;;;;;;8.70;100.00;99814.78;5012911;28;20037;-83
2023/12/31 04:15:25;;;;;;;3.53;2.10;;;;;;;8.58;100.00;99791.94;5012627;28;20065;-83
2023/12/31 04:17:52;;;;;;;3.15;2.10;;;;;;;8.64;100.00;99797.19;5013326;28;20133;-83
2023/12/31 04:20:17;;;;;;;3.83;2.00;;;;;;;8.61;100.00;99786.69;5012111;28;20057;-83
2023/12/31 04:22:43;;;;;;;2.50;1.95;;;;;;;8.67;100.00;99791.94;5013791;28;20042;-83
2023/12/31 04:25:08;;;;;;;4.45;2.05;;;;;;;8.68;100.00;99790.19;5013492;28;20041;-83
2023/12/31 04:27:38;;;;;;;3.40;2.15;;;;;;;8.64;100.00;99793.69;5028727;28;20037;-83
2023/12/31 04:30:04;;;;;;;3.42;2.28;;;;;;;8.54;100.00;99758.56;5013398;28;20061;-82
2023/12/31 04:32:30;;;;;;;3.15;2.15;;;;;;;8.63;100.00;99771.75;5013158;28;20073;-83
2023/12/31 04:34:55;;;;;;;4.15;2.15;;;;;;;8.60;100.00;99761.19;5028623;28;20444;-83
2023/12/31 04:37:21;;;;;;;3.92;2.35;;;;;;;8.50;100.00;99756.81;5013200;28;20033;-83
2023/12/31 04:39:46;;;;;;;3.83;2.40;;;;;;;8.49;100.00;99753.31;5028709;28;20042;-82
2023/12/31 04:42:11;;;;;;;3.53;2.30;;;;;;;8.49;100.00;99755.06;5013670;28;20030;-83
2023/12/31 04:44:37;;;;;;;2.53;2.20;;;;;;;8.46;100.00;99740.13;5028720;28;20061;-83
2023/12/31 04:47:03;;;;;;;4.55;2.20;;;;;;;8.58;100.00;99748.94;5011942;28;20034;-84
2023/12/31 04:49:28;;;;;;;3.60;2.22;;;;;;;8.50;100.00;99738.38;5028481;28;20066;-83
2023/12/31 04:51:54;;;;;;;4.72;2.38;;;;;;;8.56;100.00;99755.94;5013309;28;20374;-83
2023/12/31 04:54:19;;;;;;;4.07;2.13;;;;;;;8.58;100.00;99748.94;5012923;28;20060;-83
2023/12/31 04:56:44;;;;;;;3.53;2.20;;;;;;;8.58;100.00;99746.28;5012113;28;20109;-83
2023/12/31 04:59:10;;;;;;;3.55;2.28;;;;;;;8.58;100.00;99739.28;5013266;28;20042;-83
2023/12/31 05:01:35;;;;;;;4.50;2.58;;;;;;;8.59;100.00;99721.72;5028288;28;20057;-83
2023/12/31 05:04:01;;;;;;;3.85;2.42;;;;;;;8.45;100.00;99698.00;5028294;28;20038;-82
2023/12/31 05:06:27;;;;;;;3.50;2.40;;;;;;;8.57;100.00;99708.56;5011972;28;20486;-83
2023/12/31 05:08:52;;;;;;;4.53;2.28;;;;;;;8.62;100.00;99714.69;5012934;28;20124;-83
2023/12/31 05:11:18;;;;;;;2.80;2.25;;;;;;;8.47;100.00;99686.59;5013383;28;20112;-84
2023/12/31 05:13:44;;;;;;;4.82;2.40;;;;;;;8.68;100.00;99716.44;5013409;28;20030;-83
2023/12/31 05:16:13;;;;;;;5.18;2.40;;;;;;;8.68;100.00;99706.78;5013150;28;20045;-83
2023/12/31 05:18:43;;;;;;;4.68;2.70;;;;;;;8.58;100.00;99669.94;5013844;28;20053;-82
2023/12/31 05:21:10;;;;;;;4.25;2.70;;;;;;;8.70;100.00;99697.16;5013741;28;20161;-83
2023/12/31 05:23:36;;;;;;;4.78;2.30;;;;;;;8.71;100.00;99680.47;5013961;28;20057;-83
2023/12/31 05:26:01;;;;;;;4.00;2.17;;;;;;;8.73;100.00;99691.84;5018340;28;20041;-82
2023/12/31 05:28:26;;;;;;;5.63;2.50;;;;;;;8.72;100.00;99670.81;5034423;28;20034;-82
2023/12/31 05:30:52;;;;;;;5.28;2.38;;;;;;;8.54;100.00;99619.03;5034212;28;20041;-83
2023/12/31 05:33:17;;;;;;;3.60;2.63;;;;;;;8.76;100.00;99656.75;5019304;28;20413;-83
2023/12/31 05:35:43;;;;;;;5.28;2.60;;;;;;;8.80;100.00;99665.53;5015872;28;20085;-83
2023/12/31 05:38:08;;;;;;;3.60;2.35;;;;;;;8.77;100.00;99658.50;5016565;28;20044;-84
2023/12/31 05:40:33;;;;;;;4.57;2.55;;;;;;;8.67;100.00;99628.66;5016492;28;20117;-84
2023/12/31 05:42:59;;;;;;;3.50;2.50;;;;;;;8.63;100.00;99618.16;5031724;28;20470;-84
2023/12/31 05:45:24;;;;;;;3.58;2.40;;;;;;;8.69;100.00;99628.66;5016326;28;20401;-83
2023/12/31 05:47:50;;;;;;;5.63;3.08;;;;;;;8.75;100.00;99631.31;5016181;28;20080;-83
2023/12/31 05:50:15;;;;;;;5.55;2.58;;;;;;;8.70;100.00;99620.78;5016254;28;20061;-83
2023/12/31 05:52:41;;;;;;;3.90;2.53;;;;;;;8.53;100.00;99580.44;5031387;28;20034;-83
2023/12/31 05:55:07;;;;;;;4.53;2.40;;;;;;;8.78;100.00;99626.03;5031343;28;20034;-83
2023/12/31 05:57:32;;;;;;;4.05;2.40;;;;;;;8.71;100.00;99600.59;5014898;28;20390;-83
2023/12/31 05:59:59;;;;;;;4.22;2.58;;;;;;;8.74;100.00;99600.59;5014707;28;20068;-83
2023/12/31 06:02:25;;;;;;;3.83;2.60;;;;;;;8.81;100.00;99623.38;5031058;28;20084;-84
2023/12/31 06:04:50;;;;;;;4.90;2.53;;;;;;;8.81;100.00;99636.53;5015684;28;20037;-83
2023/12/31 06:07:15;;;;;;;4.70;2.72;;;;;;;8.75;100.00;99592.66;5031184;28;20038;-84
2023/12/31 06:09:41;;;;;;;4.07;2.88;;;;;;;8.83;100.00;99623.41;5031052;28;20034;-83
2023/12/31 06:12:07;;;;;;;3.75;2.72;;;;;;;8.87;100.00;99614.59;5015896;28;20155;-82
2023/12/31 06:14:32;;;;;;;4.60;2.97;;;;;;;8.85;100.00;99619.84;5015780;28;20481;-83
2023/12/31 06:16:57;;;;;;;3.45;2.40;;;;;;;8.75;100.00;99578.63;5030979;28;20406;-83
2023/12/31 06:19:23;;;;;;;3.88;2.60;;;;;;;8.77;100.00;99584.75;5030976;28;20041;-83
2023/12/31 06:21:49;;;;;;;5.07;2.78;;;;;;;8.74;100.00;99583.03;5013675;28;20049;-83
2023/12/31 06:24:14;;;;;;;4.82;2.80;;;;;;;8.82;100.00;99590.88;5015289;28;20042;-83
2023/12/31 06:26:40;;;;;;;3.40;2.40;;;;;;;8.81;100.00;99589.13;5015711;28;20053;-83
2023/12/31 06:29:05;;;;;;;3.95;2.42;;;;;;;8.77;100.00;99584.75;5015423;28;20084;-83
2023/12/31 06:31:30;;;;;;;3.45;2.70;;;;;;;8.73;100.00;99575.97;5014948;28;20038;-83
2023/12/31 06:33:56;;;;;;;4.07;2.65;;;;;;;8.82;100.00;99582.97;5015468;28;20109;-83
2023/12/31 06:36:21;;;;;;;3.33;2.58;;;;;;;8.83;100.00;99574.22;5014619;28;20030;-83
2023/12/31 06:38:46;;;;;;;4.68;2.80;;;;;;;8.81;100.00;99580.34;5015030;28;20426;-83
2023/12/31 06:41:12;;;;;;;6.63;2.90;;;;;;;8.77;100.00;99569.81;5014991;28;20072;-83
2023/12/31 06:43:38;;;;;;;3.33;2.47;;;;;;;8.77;100.00;99548.75;5030499;28;20033;-83
2023/12/31 06:46:04;;;;;;;3.10;2.35;;;;;;;8.83;100.00;99554.91;5015210;28;20034;-83
2023/12/31 06:48:30;;;;;;;3.67;2.50;;;;;;;8.81;100.00;99538.22;5013768;28;20517;-83
2023/12/31 06:50:56;;;;;;;4.70;2.50;;;;;;;8.86;100.00;99545.22;5015070;28;20021;-83
2023/12/31 06:53:21;;;;;;;3.85;2.70;;;;;;;8.86;100.00;99534.69;5013709;28;20414;-83
2023/12/31 06:55:46;;;;;;;4.32;2.80;;;;;;;8.88;100.00;99524.16;5014931;28;20120;-83
2023/12/31 06:58:15;;;;;;;3.20;2.40;;;;;;;8.82;100.00;99529.44;5014905;28;20117;-83
2023/12/31 07:00:41;;;;;;;4.45;2.70;;;;;;;8.93;100.00;99532.91;5030184;28;20037;-83
2023/12/31 07:03:06;;;;;;;5.63;2.85;;;;;;;8.88;100.00;99513.63;5029638;28;20399;-83
2023/12/31 07:05:31;;;;;;;5.35;2.70;;;;;;;8.93;100.00;99512.72;5013619;28;20466;-83
2023/12/31 07:07:57;;;;;;;3.85;2.70;;;;;;;8.99;100.00;99511.78;5014626;28;20080;-83
2023/12/31 07:10:23;;;;;;;4.28;2.70;;;;;;;8.97;100.00;99503.91;5014506;28;20164;-84
2023/12/31 07:12:48;;;;;;;6.18;2.90;;;;;;;8.97;100.00;99500.41;5014366;28;20030;-83
2023/12/31 07:15:15;;;;;;;3.40;2.60;;;;;;;9.00;100.00;99497.75;5014694;28;20395;-84
2023/12/31 07:17:40;;;;;;;4.30;2.78;;;;;;;9.16;100.00;99503.81;5013305;28;20034;-84
2023/12/31 07:20:06;;;;;;;4.60;2.70;;;;;;;9.13;100.00;99488.91;5014411;28;20422;-83
2023/12/31 07:22:32;;;;;;;3.63;2.60;;;;;;;9.25;100.00;99494.13;5014567;28;20048;-84
2023/12/31 07:25:00;;;;;;;3.80;2.63;;;;;;;9.18;100.00;99467.81;5014714;28;20026;-84
2023/12/31 07:27:26;;;;;;;3.58;2.60;;;;;;;9.33;100.00;99480.88;5014463;28;20095;-83
2023/12/31 07:29:51;;;;;;;5.20;2.60;;;;;;;9.31;100.00;99474.75;5014281;28;20378;-83
2023/12/31 07:32:16;;;;;;;4.60;2.60;;;;;;;9.36;99.86;99472.94;5014240;28;20157;-84
2023/12/31 07:34:42;;;;;;;4.38;2.58;;;;;;;9.41;99.48;99472.91;5014332;28;20545;-83
2023/12/31 07:37:07;;;;;;;4.43;2.75;;;;;;;9.35;99.34;99451.88;5013988;28;20034;-83
2023/12/31 07:39:32;;;;;;;3.42;2.60;;;;;;;9.43;99.04;99461.50;5013913;28;20050;-83
2023/12/31 07:41:58;;;;;;;6.93;2.70;;;;;;;9.36;99.18;99436.03;5014235;28;20037;-83
2023/12/31 07:44:23;;;;;;;4.47;2.63;;;;;;;9.50;99.09;99457.91;5014394;28;20125;-83
2023/12/31 07:46:50;;;;;;;4.72;2.60;;;;;;;9.54;99.29;99461.41;5014046;28;20034;-83
2023/12/31 07:49:15;;;;;;;4.38;2.78;;;;;;;9.58;98.41;99454.34;5029216;28;20049;-84
2023/12/31 07:51:40;;;;;;;5.43;2.47;;;;;;;9.68;98.30;99461.31;5029278;28;20030;-83
2023/12/31 07:54:06;;;;;;;5.45;2.60;;;;;;;9.72;97.81;99444.56;5014016;28;20041;-84
2023/12/31 07:56:31;;;;;;;4.32;2.47;;;;;;;9.77;97.62;99434.84;5013828;28;20089;-84
2023/12/31 07:58:57;;;;;;;5.03;2.70;;;;;;;9.61;97.93;99404.22;5013624;28;20034;-84
2023/12/31 08:01:22;;;;;;;4.13;2.58;;;;;;;9.78;97.80;99457.72;5013475;28;20474;-84
2023/12/31 08:03:49;;;;;;;4.20;2.90;;;;;;;9.78;97.76;99440.13;5013526;28;20061;-83
2023/12/31 08:06:14;;;;;;;5.28;2.80;;;;;;;9.85;97.86;99440.03;5028375;28;20068;-84
2023/12/31 08:08:39;;;;;;;4.60;2.50;;;;;;;9.68;98.02;99411.22;5013622;28;20478;-84
2023/12/31 08:11:05;;;;;;;3.38;2.50;;;;;;;9.93;97.85;99435.56;5028760;28;20109;-84
2023/12/31 08:13:31;;;;;;;3.88;2.60;;;;;;;9.88;97.23;99413.63;5013527;28;20386;-83
2023/12/31 08:15:56;;;;;;;5.45;2.85;;;;;;;9.97;96.76;99426.75;5013334;28;20065;-85
2023/12/31 08:18:22;;;;;;;4.55;2.70;;;;;;;9.98;97.92;99423.25;5012988;28;20072;-84
2023/12/31 08:20:47;;;;;;;4.68;2.97;;;;;;;10.02;96.86;99422.28;5028191;28;20065;-83
2023/12/31 08:23:13;;;;;;;3.70;2.50;;;;;;;10.03;96.52;99440.75;5013469;28;20562;-83
2023/12/31 08:25:38;;;;;;;4.28;2.75;;;;;;;10.12;96.56;99428.38;5013138;28;20034;-83
2023/12/31 08:28:04;;;;;;;3.45;2.40;;;;;;;10.13;97.83;99438.91;5012822;28;20083;-83
2023/12/31 08:30:29;;;;;;;3.72;2.60;;;;;;;10.20;97.36;99429.16;5011579;28;20089;-84
2023/12/31 08:32:55;;;;;;;3.70;2.65;;;;;;;10.12;97.63;99437.16;5011803;28;20133;-84
2023/12/31 08:35:22;;;;;;;3.63;2.60;;;;;;;10.18;97.63;99441.50;5013141;28;20029;-83
2023/12/31 08:37:48;;;;;;;4.80;2.72;;;;;;;9.82;98.79;99390.84;5028331;28;20483;-83
2023/12/31 08:40:14;;;;;;;3.78;2.67;;;;;;;10.11;100.00;99439.81;5011720;28;20474;-83
2023/12/31 08:42:40;;;;;;;3.60;2.53;;;;;;;10.03;100.00;99421.41;5011660;28;20133;-83
2023/12/31 08:45:10;;;;;;;4.70;2.97;;;;;;;10.00;100.00;99445.19;5011758;28;20260;-82
2023/12/31 08:47:36;;;;;;;6.32;3.13;;;;;;;9.94;100.00;99445.25;5013017;28;20037;-83
2023/12/31 08:50:07;;;;;;;4.15;2.70;;;;;;;9.76;100.00;99404.06;5012831;28;20034;-83
2023/12/31 08:52:34;;;;;;;4.93;2.60;;;;;;;9.86;100.00;99455.00;5012730;28;20172;-82
2023/12/31 08:55:00;;;;;;;3.83;2.83;;;;;;;9.78;100.00;99419.00;5028001;28;20030;-85
2023/12/31 08:57:25;;;;;;;5.03;2.58;;;;;;;9.85;100.00;99440.94;5011547;28;20034;-83
2023/12/31 08:59:50;;;;;;;3.63;2.70;;;;;;;9.82;100.00;99411.94;5013446;28;20498;-83
2023/12/31 09:02:16;;;;;;;4.30;2.60;;;;;;;9.79;100.00;99431.31;5033490;28;20045;-87
2023/12/31 09:04:41;;;;;;;3.88;2.67;;;;;;;9.78;100.00;99434.84;5032732;28;20038;-84
2023/12/31 09:07:06;;;;;;;3.30;2.45;;;;;;;9.75;100.00;99433.97;5016469;28;20038;-85
2023/12/31 09:09:32;;;;;;;4.32;2.65;;;;;;;9.66;100.00;99413.84;5015270;28;20540;-86
2023/12/31 09:11:57;;;;;;;3.78;2.60;;;;;;;9.64;100.00;99433.22;5015240;28;20038;-84
2023/12/31 09:14:25;;;;;;;7.15;2.80;;;;;;;9.48;100.00;99421.91;5016664;28;20034;-85
2023/12/31 09:16:50;;;;;;;4.13;2.50;;;;;;;9.59;100.00;99454.31;5031794;28;20088;-85
2023/12/31 09:19:16;;;;;;;3.50;2.60;;;;;;;9.42;100.00;99420.19;5031556;28;20046;-84
2023/12/31 09:21:41;;;;;;;3.30;2.30;;;;;;;9.56;100.00;99478.09;5031698;28;20107;-85
2023/12/31 09:24:07;;;;;;;3.22;2.20;;;;;;;9.49;100.00;99450.88;5016537;28;20058;-84
2023/12/31 09:26:32;;;;;;;3.45;2.30;;;;;;;9.48;100.00;99462.31;5014991;28;20474;-85
2023/12/31 09:28:58;;;;;;;3.08;2.10;;;;;;;9.48;100.00;99461.47;5014844;28;20026;-85
2023/12/31 09:31:25;;;;;;;3.08;2.00;;;;;;;9.46;100.00;99464.13;5015861;28;20037;-86
2023/12/31 09:33:50;;;;;;;2.95;1.95;;;;;;;9.48;100.00;99478.16;5030235;28;20034;-84
2023/12/31 09:36:16;;;;;;;3.97;2.10;;;;;;;9.47;100.00;99447.41;5015467;28;20041;-84
2023/12/31 09:38:41;;;;;;;5.03;2.10;;;;;;;9.40;100.00;99458.88;5015462;28;20470;-84
2023/12/31 09:41:08;;;;;;;3.30;2.00;;;;;;;9.49;100.00;99476.38;5013866;28;20030;-84
2023/12/31 09:43:35;;;;;;;3.10;2.00;;;;;;;9.37;100.00;99468.56;5014212;28;20034;-84
2023/12/31 09:46:02;;;;;;;4.57;2.00;;;;;;;9.43;100.00;99473.81;4997623;28;20124;-84
2023/12/31 09:48:29;;;;;;;4.63;1.90;;;;;;;9.42;100.00;99474.66;5015278;28;20048;-84
2023/12/31 09:50:55;;;;;;;2.13;1.73;;;;;;;9.47;100.00;99481.69;5015608;28;20029;-84
2023/12/31 09:53:22;;;;;;;3.35;1.95;;;;;;;9.45;100.00;99478.16;5030808;28;20045;-84
2023/12/31 09:55:50;;;;;;;2.95;1.85;;;;;;;9.41;100.00;99475.56;5015895;28;20038;-84
2023/12/31 09:58:17;;;;;;;2.53;1.83;;;;;;;9.44;100.00;99512.47;5015594;28;20034;-84
2023/12/31 10:00:43;;;;;;;3.50;1.73;;;;;;;9.42;100.00;99490.47;5015784;28;20029;-83
2023/12/31 10:03:10;;;;;;;3.42;1.85;;;;;;;9.31;100.00;99473.88;5015345;28;20053;-83
2023/12/31 10:05:38;;;;;;;3.58;1.83;;;;;;;9.40;100.00;99493.13;5015353;28;20033;-83
2023/12/31 10:08:05;;;;;;;2.97;1.80;;;;;;;9.39;100.00;99490.53;5015265;28;20026;-83
2023/12/31 10:10:34;;;;;;;2.85;1.80;;;;;;;9.39;100.00;99480.84;5014272;28;20146;-83
2023/12/31 10:13:00;;;;;;;2.10;1.50;;;;;;;9.42;100.00;99474.66;5015503;28;20112;-83
2023/12/31 10:15:25;;;;;;;4.20;1.70;;;;;;;9.47;99.67;99476.41;5015567;28;20137;-83
2023/12/31 10:17:51;;;;;;;3.88;1.67;;;;;;;9.50;99.63;99500.09;5015074;28;20467;-83
2023/12/31 10:20:19;;;;;;;2.47;1.50;;;;;;;9.30;98.40;99440.50;5013895;28;20103;-83
2023/12/31 10:22:45;;;;;;;3.80;1.70;;;;;;;9.58;98.27;99486.00;5015211;28;20040;-84
2023/12/31 10:25:14;;;;;;;3.50;1.80;;;;;;;9.53;99.08;99491.28;5015181;28;20410;-84
2023/12/31 10:27:47;;;;;;;3.75;1.67;;;;;;;9.53;99.90;99478.97;5015322;28;20025;-83
2023/12/31 10:30:12;;;;;;;2.88;1.70;;;;;;;9.43;100.00;99479.94;5015238;28;20072;-84
2023/12/31 10:32:38;;;;;;;2.88;1.67;;;;;;;9.36;100.00;99475.59;5013995;28;20057;-83
2023/12/31 10:35:05;;;;;;;4.68;1.63;;;;;;;9.19;100.00;99477.44;5015258;28;20463;-83
2023/12/31 10:37:30;;;;;;;2.85;1.60;;;;;;;9.15;100.00;99491.53;5013776;28;20047;-84
2023/12/31 10:39:56;;;;;;;3.47;1.65;;;;;;;9.06;100.00;99487.19;5030357;28;20034;-84
2023/12/31 10:42:22;;;;;;;2.33;1.60;;;;;;;9.04;100.00;99488.97;5015075;28;20120;-83
2023/12/31 10:44:53;;;;;;;2.58;1.63;;;;;;;8.91;100.00;99492.53;5015048;28;20108;-83
2023/12/31 10:47:19;;;;;;;4.30;1.98;;;;;;;8.78;100.00;99474.16;5015059;28;20045;-83
2023/12/31 10:49:48;;;;;;;2.63;1.70;;;;;;;8.69;100.00;99463.66;5014929;28;20026;-84
2023/12/31 10:52:14;;;;;;;2.45;1.73;;;;;;;8.70;100.00;99486.47;5015271;28;20062;-83
2023/12/31 10:54:42;;;;;;;2.63;1.70;;;;;;;8.69;100.00;99495.25;5015105;28;20466;-83
2023/12/31 10:57:09;;;;;;;4.57;2.00;;;;;;;8.68;100.00;99511.03;5014686;28;20506;-83
2023/12/31 10:59:36;;;;;;;3.60;1.70;;;;;;;8.60;100.00;99476.81;5014804;28;20120;-83
2023/12/31 11:02:04;;;;;;;4.78;1.85;;;;;;;8.63;100.00;99482.09;5029658;28;20602;-82
2023/12/31 11:04:30;;;;;;;3.08;1.70;;;;;;;8.75;100.00;99502.25;5013302;28;20079;-82
2023/12/31 11:06:56;;;;;;;4.10;1.70;;;;;;;8.63;100.00;99462.78;5014379;28;20113;-82
2023/12/31 11:09:22;;;;;;;5.65;1.70;;;;;;;8.76;100.00;99488.19;5014435;28;20132;-82
2023/12/31 11:11:49;;;;;;;4.20;1.80;;;;;;;8.68;100.00;99472.41;5014247;28;20371;-82
2023/12/31 11:14:16;;;;;;;3.42;1.60;;;;;;;8.76;100.00;99483.78;5014440;28;20077;-83
2023/12/31 11:17:02;;;;;;;3.60;1.70;;;;;;;8.86;100.00;99484.63;5014414;28;20041;-82
2023/12/31 11:19:59;;;;;;;2.83;1.50;;;;;;;8.92;100.00;99494.28;5014418;28;20525;-82
2023/12/31 11:22:56;;;;;;;2.58;1.60;;;;;;;8.95;100.00;99492.53;5012760;28;20046;-82
2023/12/31 11:25:22;;;;;;;5.13;1.70;;;;;;;8.92;100.00;99492.53;5014527;28;20060;-82
2023/12/31 11:27:53;;;;;;;3.50;1.45;;;;;;;9.06;100.00;99481.91;5014213;28;20034;-82